Time;durP1;ratioP1;P1;durP2;ratioP2;P2;SDS_P1;SDS_P2;PMS_P1;PMS_P2;Temp;Humidity;BMP_temperature;BMP_pressure;BME280_temperature;BME280_humidity;BME280_pressure;Samples;Min_cycle;Max_cycle;Signal;HPM_P1;HPM_P2
2023/12/18 00:14:13;;;;;;;19.80;11.60;;;;;;;10.60;92.71;101011.50;682497;1260;139720;-84
2023/12/18 00:29:50;;;;;;;25.80;13.50;;;;;;;10.44;93.12;101003.06;682632;1260;138812;-84
2023/12/18 00:45:28;;;;;;;21.50;11.70;;;;;;;10.35;93.18;100990.45;682677;1262;138788;-85
2023/12/18 01:01:05;;;;;;;20.80;11.00;;;;;;;10.43;92.13;100983.02;682774;1261;142044;-82
2023/12/18 01:16:42;;;;;;;19.40;10.00;;;;;;;10.31;92.77;100985.16;682649;1262;139876;-84
2023/12/18 01:32:19;;;;;;;21.90;11.20;;;;;;;10.24;92.91;100993.73;682749;1264;140093;-83
2023/12/18 01:47:56;;;;;;;21.90;11.80;;;;;;;10.18;93.11;100999.95;682253;1263;139374;-85
2023/12/18 02:03:37;;;;;;;19.80;11.40;;;;;;;10.14;92.65;100998.98;682462;1263;138947;-84
2023/12/18 02:19:35;;;;;;;24.00;10.70;;;;;;;10.03;93.10;101004.52;682591;1263;139928;-86
2023/12/18 02:35:13;;;;;;;24.30;12.80;;;;;;;10.12;92.74;100999.86;674641;1263;10142509;-84
2023/12/18 02:50:50;;;;;;;17.80;10.80;;;;;;;10.61;89.82;101008.23;682276;1263;139520;-84
2023/12/18 03:06:28;;;;;;;23.20;11.80;;;;;;;10.64;89.33;101008.57;681981;1264;139228;-83
2023/12/18 03:22:05;;;;;;;23.00;11.00;;;;;;;10.58;89.20;100996.82;681975;1263;142368;-84
2023/12/18 03:37:42;;;;;;;23.50;12.10;;;;;;;10.68;88.82;100993.38;682553;1260;138938;-86
2023/12/18 03:53:22;;;;;;;22.30;11.10;;;;;;;10.62;88.53;101000.46;682564;1263;140198;-85
2023/12/18 04:08:59;;;;;;;22.50;10.80;;;;;;;10.70;88.39;100997.73;682807;1259;139668;-84
2023/12/18 04:24:36;;;;;;;23.40;11.20;;;;;;;10.69;88.10;100987.16;682569;1262;138969;-85
2023/12/18 04:40:14;;;;;;;20.10;11.10;;;;;;;10.65;88.60;100980.14;682340;1262;139042;-83
2023/12/18 04:55:51;;;;;;;24.70;13.50;;;;;;;10.46;91.23;100991.55;682691;1266;139263;-84
2023/12/18 05:11:29;;;;;;;23.30;11.70;;;;;;;10.54;91.04;100990.66;682594;1262;139921;-84
2023/12/18 05:27:06;;;;;;;26.60;13.40;;;;;;;10.46;91.69;100987.92;682562;1263;138839;-83
2023/12/18 05:42:44;;;;;;;25.30;12.20;;;;;;;10.54;91.15;100992.67;682367;1262;139685;-83
2023/12/18 05:58:21;;;;;;;24.60;12.60;;;;;;;10.55;91.60;100996.46;682610;1266;138987;-83
2023/12/18 06:13:58;;;;;;;27.40;14.10;;;;;;;10.62;91.73;100996.31;682592;1263;139103;-84
2023/12/18 06:29:35;;;;;;;104.50;37.80;;;;;;;10.46;92.42;101006.23;682454;1262;140063;-85
2023/12/18 06:45:16;;;;;;;36.00;20.70;;;;;;;10.42;92.72;101020.00;682400;1263;139175;-84
2023/12/18 07:00:53;;;;;;;36.40;18.10;;;;;;;10.48;92.20;101028.48;682455;1272;140841;-83
2023/12/18 07:16:30;;;;;;;41.90;19.40;;;;;;;10.31;93.33;101038.45;682027;1264;139431;-84
2023/12/18 07:32:08;;;;;;;35.50;18.20;;;;;;;10.31;93.60;101035.31;682178;1266;139048;-85
2023/12/18 07:47:44;;;;;;;33.40;16.10;;;;;;;10.34;93.77;101040.34;682092;1264;140325;-80
2023/12/18 08:03:21;;;;;;;31.30;15.10;;;;;;;10.17;94.86;101041.26;682260;1264;138876;-83
2023/12/18 08:18:58;;;;;;;51.20;25.50;;;;;;;10.18;95.75;101051.20;682328;1263;139269;-83
2023/12/18 08:34:35;;;;;;;80.20;38.10;;;;;;;10.20;96.27;101057.70;681748;1260;139145;-82
2023/12/18 08:50:12;;;;;;;48.70;24.60;;;;;;;9.92;98.41;101071.06;682290;1266;139862;-82
2023/12/18 09:05:50;;;;;;;49.20;19.00;;;;;;;9.94;99.02;101067.74;682199;1263;138909;-85
2023/12/18 09:21:27;;;;;;;45.40;19.40;;;;;;;10.14;97.90;101072.45;682159;1263;139275;-85
2023/12/18 09:37:04;;;;;;;55.50;28.20;;;;;;;10.23;98.05;101082.26;682235;1259;139780;-86
2023/12/18 09:52:45;;;;;;;55.10;22.80;;;;;;;10.27;98.15;101082.86;682208;1261;139050;-82
2023/12/18 10:08:22;;;;;;;42.20;19.60;;;;;;;10.14;99.26;101075.20;682368;1259;139371;-82
2023/12/18 10:24:00;;;;;;;50.00;22.50;;;;;;;10.23;99.90;101069.89;682183;1263;140362;-82
2023/12/18 10:39:46;;;;;;;47.50;25.80;;;;;;;10.39;99.67;101072.70;681968;1260;139363;-83
2023/12/18 10:55:24;;;;;;;34.10;18.60;;;;;;;10.53;98.97;101074.46;682336;1259;139126;-84
2023/12/18 11:11:04;;;;;;;;;;;;;;;10.47;99.61;101077.35;682003;1260;139034;-85
2023/12/18 11:26:41;;;;;;;31.20;15.60;;;;;;;10.55;99.27;101080.80;682027;1263;126398;-82
2023/12/18 11:42:19;;;;;;;27.70;16.30;;;;;;;10.82;98.69;101077.66;682095;1259;139070;-86
2023/12/18 11:57:58;;;;;;;40.70;22.00;;;;;;;10.87;97.77;101081.71;682148;1264;139358;-85
2023/12/18 12:13:35;;;;;;;;;;;;;;;10.94;97.64;101078.71;682392;1261;139686;-85
2023/12/18 12:29:12;;;;;;;31.60;16.80;;;;;;;11.02;97.27;101072.33;682316;1262;125113;-84
2023/12/18 12:44:49;;;;;;;41.60;18.90;;;;;;;10.98;97.05;101077.36;682248;1259;139899;-85
2023/12/18 13:00:27;;;;;;;32.50;15.30;;;;;;;11.09;96.46;101078.98;682035;1259;139594;-84
2023/12/18 13:16:05;;;;;;;;;;;;;;;11.06;97.33;101075.34;682387;1263;139373;-83
2023/12/18 13:31:42;;;;;;;27.70;13.70;;;;;;;11.23;96.37;101078.80;682515;1260;125037;-83
2023/12/18 13:47:20;;;;;;;28.20;14.90;;;;;;;11.08;97.22;101075.91;682306;1263;139243;-83
2023/12/18 14:02:57;;;;;;;30.50;14.90;;;;;;;11.05;97.04;101093.81;682162;1259;139074;-83
2023/12/18 14:18:38;;;;;;;28.60;15.20;;;;;;;11.07;96.82;101091.52;682223;1263;139260;-84
2023/12/18 14:34:14;;;;;;;30.50;14.80;;;;;;;11.12;96.63;101097.08;674637;1260;10143307;-83
2023/12/18 14:49:52;;;;;;;27.80;15.20;;;;;;;10.87;97.90;101105.18;682302;1263;141126;-83
2023/12/18 15:05:29;;;;;;;35.40;17.50;;;;;;;10.83;98.99;101099.48;682130;1263;139761;-83
2023/12/18 15:21:06;;;;;;;36.80;20.80;;;;;;;10.86;98.66;101100.84;682244;1260;139078;-84
2023/12/18 15:36:43;;;;;;;33.80;17.10;;;;;;;10.65;99.53;101100.88;682305;1260;138864;-83
2023/12/18 15:52:29;;;;;;;32.30;15.80;;;;;;;10.70;99.49;101095.27;682270;1262;139656;-82
2023/12/18 16:08:05;;;;;;;28.30;15.60;;;;;;;10.69;99.32;101095.85;682235;1263;138788;-84
2023/12/18 16:23:42;;;;;;;68.50;30.90;;;;;;;10.77;99.05;101076.66;682291;1263;139200;-83
2023/12/18 16:39:19;;;;;;;103.10;43.90;;;;;;;10.84;98.41;101067.10;682002;1263;140301;-84
2023/12/18 16:54:57;;;;;;;55.70;24.70;;;;;;;10.70;98.92;101053.75;681969;1260;139659;-83
2023/12/18 17:10:34;;;;;;;45.00;20.70;;;;;;;10.52;99.92;101051.66;681904;1264;139315;-85
2023/12/18 17:26:14;;;;;;;38.40;19.60;;;;;;;10.53;99.83;101056.94;682020;1265;139062;-84
2023/12/18 17:42:08;;;;;;;46.80;20.60;;;;;;;10.52;99.78;101048.98;681975;1266;139214;-84
2023/12/18 17:57:45;;;;;;;47.20;21.60;;;;;;;10.62;99.54;101046.84;682249;1263;139363;-84
2023/12/18 18:13:22;;;;;;;47.00;22.90;;;;;;;10.69;99.27;101039.00;682077;1265;138976;-84
2023/12/18 18:28:59;;;;;;;55.90;24.10;;;;;;;10.54;99.33;101029.11;681856;1262;139188;-85
2023/12/18 18:44:36;;;;;;;46.50;23.40;;;;;;;10.44;99.68;100995.88;681789;1265;138857;-84
2023/12/18 19:16:18;;;;;;;52.50;25.70;;;;;;;10.38;99.62;100947.59;682210;1274;139344;-83
2023/12/18 19:31:57;;;;;;;66.50;30.50;;;;;;;10.43;99.01;100940.22;682387;1262;138903;-84
2023/12/18 19:47:34;;;;;;;65.20;27.60;;;;;;;10.27;98.75;100928.10;682047;1265;138980;-84
2023/12/18 20:03:13;;;;;;;41.70;20.10;;;;;;;10.22;99.69;100906.66;682075;1264;139342;-83
2023/12/18 20:18:51;;;;;;;46.00;20.80;;;;;;;10.10;99.72;100885.70;682093;1264;139878;-84
2023/12/18 20:34:28;;;;;;;48.00;23.20;;;;;;;10.04;99.94;100854.85;682106;1263;139948;-84
2023/12/18 20:50:05;;;;;;;42.10;20.60;;;;;;;10.20;99.57;100845.97;682116;1265;138865;-83
2023/12/18 21:05:45;;;;;;;31.60;17.30;;;;;;;10.03;99.73;100855.65;681938;1265;139207;-84
2023/12/18 21:21:21;;;;;;;37.90;20.10;;;;;;;9.76;100.00;100819.77;681781;1263;139715;-82
2023/12/18 21:36:58;;;;;;;34.50;17.30;;;;;;;9.74;100.00;100804.57;681934;1263;140233;-82
2023/12/18 21:52:35;;;;;;;38.00;18.00;;;;;;;9.85;100.00;100782.63;681873;1263;140403;-82
2023/12/18 22:08:12;;;;;;;33.80;18.10;;;;;;;9.84;100.00;100752.11;682164;1266;139061;-83
2023/12/18 22:23:49;;;;;;;37.40;17.80;;;;;;;9.91;100.00;100748.02;682073;1263;140034;-83
2023/12/18 22:39:28;;;;;;;28.00;15.00;;;;;;;9.82;100.00;100739.70;682154;1263;139163;-82
2023/12/18 22:55:06;;;;;;;28.90;16.20;;;;;;;9.68;100.00;100707.77;682195;1263;139862;-83
2023/12/18 23:10:44;;;;;;;31.20;15.60;;;;;;;9.86;100.00;100677.00;682166;1264;140414;-82
2023/12/18 23:26:22;;;;;;;37.10;19.70;;;;;;;9.80;100.00;100661.75;682348;1263;139055;-82
2023/12/18 23:41:59;;;;;;;27.40;15.60;;;;;;;9.66;100.00;100647.31;682202;1263;139441;-82
2023/12/18 23:57:36;;;;;;;34.10;16.00;;;;;;;9.62;100.00;100614.23;682282;1261;139720;-81
